createdAt,value
2023-02-18T00:01:00.130Z,10.00
2023-02-18T00:03:29.180Z,10.00
2023-02-18T00:05:57.263Z,10.00
2023-02-18T00:08:25.596Z,9.90
2023-02-18T00:10:53.910Z,9.90
2023-02-18T00:13:21.645Z,9.90
2023-02-18T00:15:50.722Z,9.90
2023-02-18T00:18:18.446Z,9.90
2023-02-18T00:20:46.146Z,9.90
2023-02-18T00:23:13.862Z,9.90
2023-02-18T00:25:41.574Z,9.90
2023-02-18T00:28:09.297Z,9.90
2023-02-18T00:30:41.305Z,9.90
2023-02-18T00:33:10.672Z,9.90
2023-02-18T00:35:38.351Z,9.90
2023-02-18T00:38:06.061Z,9.90
2023-02-18T00:40:33.756Z,9.90
2023-02-18T00:43:01.492Z,9.90
2023-02-18T00:45:29.226Z,9.90
2023-02-18T00:47:56.971Z,9.90
2023-02-18T00:50:26.303Z,9.90
2023-02-18T00:52:54.019Z,9.90
2023-02-18T00:55:21.742Z,9.80
2023-02-18T00:57:49.539Z,9.80
2023-02-18T01:00:18.032Z,9.80
2023-02-18T01:02:45.827Z,9.80
2023-02-18T01:05:13.625Z,9.80
2023-02-18T01:07:42.679Z,9.80
2023-02-18T01:10:10.762Z,9.80
2023-02-18T01:12:38.491Z,9.80
2023-02-18T01:15:07.479Z,9.80
2023-02-18T01:17:35.304Z,9.80
2023-02-18T01:20:03.233Z,9.80
2023-02-18T01:22:31.073Z,9.70
2023-02-18T01:25:00.136Z,9.70
2023-02-18T01:27:27.914Z,9.70
2023-02-18T01:29:55.674Z,9.70
2023-02-18T01:32:23.649Z,9.70
2023-02-18T01:34:51.370Z,9.70
2023-02-18T01:37:19.206Z,9.80
2023-02-18T01:39:46.954Z,9.70
2023-02-18T01:42:21.040Z,9.70
2023-02-18T01:44:49.354Z,9.70
2023-02-18T01:47:17.882Z,9.70
2023-02-18T01:49:47.565Z,9.70
2023-02-18T01:52:19.765Z,9.70
2023-02-18T01:54:51.119Z,9.70
2023-02-18T01:57:23.496Z,9.70
2023-02-18T01:59:55.327Z,9.70
2023-02-18T02:02:25.825Z,9.80
2023-02-18T02:04:53.920Z,9.80
2023-02-18T02:07:24.308Z,9.80
2023-02-18T02:09:54.158Z,9.70
2023-02-18T02:12:39.511Z,9.70
2023-02-18T02:15:26.190Z,9.80
2023-02-18T02:18:08.810Z,9.70
2023-02-18T02:21:14.574Z,9.80
2023-02-18T02:24:13.593Z,9.70
2023-02-18T02:27:06.613Z,9.70
2023-02-18T02:30:07.339Z,9.70
2023-02-18T02:33:02.107Z,9.70
2023-02-18T02:35:37.870Z,9.70
2023-02-18T02:38:13.389Z,9.70
2023-02-18T02:40:47.791Z,9.70
2023-02-18T02:43:25.777Z,9.70
2023-02-18T02:45:59.017Z,9.70
2023-02-18T02:48:33.586Z,9.70
2023-02-18T02:51:10.171Z,9.70
2023-02-18T02:53:40.714Z,9.70
2023-02-18T02:56:14.470Z,9.70
2023-02-18T02:58:42.221Z,9.70
2023-02-18T03:01:36.558Z,9.60
2023-02-18T03:04:17.252Z,9.60
2023-02-18T03:07:08.076Z,9.70
2023-02-18T03:09:49.426Z,9.60
2023-02-18T03:12:24.384Z,9.60
2023-02-18T03:14:57.681Z,9.60
2023-02-18T03:17:30.281Z,9.60
2023-02-18T03:20:09.198Z,9.60
2023-02-18T03:22:42.610Z,9.60
2023-02-18T03:25:12.150Z,9.60
2023-02-18T03:27:44.807Z,9.60
2023-02-18T03:30:17.329Z,9.60
2023-02-18T03:32:48.210Z,9.60
2023-02-18T03:35:17.989Z,9.60
2023-02-18T03:37:51.936Z,9.60
2023-02-18T03:40:20.389Z,9.60
2023-02-18T03:42:48.148Z,9.60
2023-02-18T03:45:15.840Z,9.60
2023-02-18T03:47:43.578Z,9.60
2023-02-18T03:50:11.565Z,9.60
2023-02-18T03:52:39.283Z,9.60
2023-02-18T03:55:09.287Z,9.60
2023-02-18T03:57:37.090Z,9.60
2023-02-18T04:00:06.696Z,9.60
2023-02-18T04:02:34.457Z,9.60
2023-02-18T04:05:02.933Z,9.60
2023-02-18T04:07:30.658Z,9.60
2023-02-18T04:09:58.412Z,9.60
2023-02-18T04:12:27.604Z,9.60
2023-02-18T04:14:55.324Z,9.60
2023-02-18T04:17:23.022Z,9.60
2023-02-18T04:19:50.754Z,9.60
2023-02-18T04:22:18.478Z,9.60
2023-02-18T04:24:46.207Z,9.50
2023-02-18T04:27:13.910Z,9.60
2023-02-18T04:29:43.451Z,9.60
2023-02-18T04:32:11.164Z,9.60
2023-02-18T04:34:38.896Z,9.60
2023-02-18T04:37:06.617Z,9.60
2023-02-18T04:39:34.459Z,9.50
2023-02-18T04:42:02.563Z,9.50
2023-02-18T04:44:30.283Z,9.50
2023-02-18T04:46:59.432Z,9.50
2023-02-18T04:49:27.154Z,9.50
2023-02-18T04:51:54.857Z,9.50
2023-02-18T04:54:22.650Z,9.50
2023-02-18T04:56:50.405Z,9.50
2023-02-18T04:59:18.359Z,9.50
2023-02-18T05:01:46.122Z,9.50
2023-02-18T05:04:15.206Z,9.50
2023-02-18T05:06:43.074Z,9.50
2023-02-18T05:09:10.959Z,9.50
2023-02-18T05:11:38.962Z,9.50
2023-02-18T05:14:06.709Z,9.40
2023-02-18T05:16:34.587Z,9.40
2023-02-18T05:19:02.404Z,9.40
2023-02-18T05:21:31.635Z,9.40
2023-02-18T05:23:59.399Z,9.40
2023-02-18T05:26:27.279Z,9.40
2023-02-18T05:28:54.992Z,9.40
2023-02-18T05:31:22.767Z,9.40
2023-02-18T05:33:50.498Z,9.40
2023-02-18T05:36:18.348Z,9.40
2023-02-18T05:38:47.379Z,9.40
2023-02-18T05:41:15.252Z,9.40
2023-02-18T05:44:00.584Z,9.40
2023-02-18T05:46:28.346Z,9.40
2023-02-18T05:48:56.185Z,9.40
2023-02-18T05:51:23.924Z,9.40
2023-02-18T05:53:52.981Z,9.40
2023-02-18T05:56:21.020Z,9.30
2023-02-18T05:58:48.751Z,9.30
2023-02-18T06:01:16.478Z,9.30
2023-02-18T06:03:44.192Z,9.30
2023-02-18T06:06:12.125Z,9.40
2023-02-18T06:08:40.064Z,9.30
2023-02-18T06:11:09.117Z,9.30
2023-02-18T06:13:36.814Z,9.30
2023-02-18T06:16:04.812Z,9.30
2023-02-18T06:18:32.587Z,9.30
2023-02-18T06:21:00.360Z,9.30
2023-02-18T06:23:28.101Z,9.30
2023-02-18T06:25:55.887Z,9.30
2023-02-18T06:28:25.007Z,9.30
2023-02-18T06:30:52.712Z,9.30
2023-02-18T06:33:20.431Z,9.30
2023-02-18T06:35:55.608Z,9.30
2023-02-18T06:38:23.462Z,9.30
2023-02-18T06:40:51.325Z,9.30
2023-02-18T06:43:19.243Z,9.30
2023-02-18T06:45:48.392Z,9.30
2023-02-18T06:48:16.847Z,9.20
2023-02-18T06:50:44.640Z,9.20
2023-02-18T06:53:12.748Z,9.30
2023-02-18T06:55:41.691Z,9.20
2023-02-18T06:58:11.257Z,9.20
2023-02-18T07:00:39.460Z,9.20
2023-02-18T07:03:09.295Z,9.20
2023-02-18T07:05:37.017Z,9.20
2023-02-18T07:08:05.032Z,9.20
2023-02-18T07:10:32.806Z,9.20
2023-02-18T07:13:00.535Z,9.20
2023-02-18T07:15:28.517Z,9.20
2023-02-18T07:17:56.313Z,9.20
2023-02-18T07:20:26.320Z,9.20
2023-02-18T07:22:54.367Z,9.20
2023-02-18T07:25:23.478Z,9.20
2023-02-18T07:27:51.385Z,9.20
2023-02-18T07:30:19.881Z,9.20
2023-02-18T07:32:47.690Z,9.20
2023-02-18T07:35:16.895Z,9.20
2023-02-18T07:37:47.610Z,9.20
2023-02-18T07:40:18.195Z,9.20
2023-02-18T07:42:45.955Z,9.20
2023-02-18T07:45:14.733Z,9.20
2023-02-18T07:47:42.664Z,9.20
2023-02-18T07:50:11.333Z,9.20
2023-02-18T07:52:39.074Z,9.20
2023-02-18T07:55:09.304Z,9.20
2023-02-18T07:57:57.083Z,9.20
2023-02-18T08:00:25.431Z,9.20
2023-02-18T08:02:53.288Z,9.20
2023-02-18T08:05:21.175Z,9.30
2023-02-18T08:07:48.986Z,9.30
2023-02-18T08:10:18.084Z,9.30
2023-02-18T08:12:45.812Z,9.30
2023-02-18T08:15:13.997Z,9.30
2023-02-18T08:17:41.742Z,9.30
2023-02-18T08:20:10.548Z,9.30
2023-02-18T08:22:38.328Z,9.30
2023-02-18T08:25:06.820Z,9.30
2023-02-18T08:27:35.879Z,9.30
2023-02-18T08:30:03.904Z,9.30
2023-02-18T08:32:31.748Z,9.30
2023-02-18T08:34:59.484Z,9.20
2023-02-18T08:37:27.332Z,9.20
2023-02-18T08:39:55.093Z,9.20
2023-02-18T08:42:22.914Z,9.20
2023-02-18T08:44:51.963Z,9.10
2023-02-18T08:48:17.071Z,9.10
2023-02-18T08:50:07.728Z,9.10
2023-02-18T08:52:35.472Z,9.00
2023-02-18T08:55:04.709Z,9.00
2023-02-18T08:57:32.477Z,9.00
2023-02-18T09:00:01.536Z,9.00
2023-02-18T09:02:29.514Z,8.90
2023-02-18T09:04:57.217Z,8.90
2023-02-18T09:07:25.066Z,8.90
2023-02-18T09:09:52.934Z,8.90
2023-02-18T09:12:20.653Z,8.80
2023-02-18T09:14:48.856Z,8.80
2023-02-18T09:17:17.943Z,8.80
2023-02-18T09:19:45.712Z,8.80
2023-02-18T09:22:13.525Z,8.80
2023-02-18T09:24:42.432Z,8.80
2023-02-18T09:27:11.371Z,8.80
2023-02-18T09:29:40.952Z,8.90
2023-02-18T09:32:11.043Z,8.90
2023-02-18T09:34:40.142Z,8.90
2023-02-18T09:37:07.843Z,8.80
2023-02-18T09:39:35.584Z,8.80
2023-02-18T09:42:05.109Z,8.80
2023-02-18T09:44:37.776Z,8.80
2023-02-18T09:47:12.190Z,8.80
2023-02-18T09:49:45.030Z,8.80
2023-02-18T09:52:23.694Z,8.80
2023-02-18T09:54:52.010Z,8.80
2023-02-18T09:57:26.981Z,8.80
2023-02-18T10:00:00.910Z,8.80
2023-02-18T10:02:29.852Z,8.80
2023-02-18T10:04:59.547Z,8.80
2023-02-18T10:07:31.317Z,8.80
2023-02-18T10:10:03.813Z,8.80
2023-02-18T10:12:35.126Z,8.90
2023-02-18T10:15:03.113Z,8.90
2023-02-18T10:17:33.676Z,8.90
2023-02-18T10:20:07.861Z,8.80
2023-02-18T10:22:37.768Z,8.80
2023-02-18T10:25:08.111Z,8.80
2023-02-18T10:27:39.791Z,8.80
2023-02-18T10:30:22.842Z,8.80
2023-02-18T10:32:54.273Z,8.80
2023-02-18T10:35:26.409Z,8.80
2023-02-18T10:38:05.550Z,8.80
2023-02-18T10:40:39.410Z,8.80
2023-02-18T10:43:17.239Z,8.90
2023-02-18T10:45:51.176Z,8.80
2023-02-18T10:48:38.553Z,8.80
2023-02-18T10:51:16.544Z,8.90
2023-02-18T10:53:46.148Z,8.80
2023-02-18T10:56:35.063Z,8.80
2023-02-18T10:59:10.634Z,8.80
2023-02-18T11:01:38.731Z,8.90
2023-02-18T11:04:13.411Z,8.80
2023-02-18T11:06:46.683Z,8.80
2023-02-18T11:09:29.702Z,8.80
2023-02-18T11:12:08.782Z,8.80
2023-02-18T11:14:42.954Z,8.80
2023-02-18T11:17:19.069Z,8.80
2023-02-18T11:19:55.044Z,8.80
2023-02-18T11:22:26.011Z,8.80
2023-02-18T11:24:58.417Z,8.80
2023-02-18T11:27:32.406Z,8.80
2023-02-18T11:30:05.765Z,8.80
2023-02-18T11:32:37.195Z,8.80
2023-02-18T11:35:06.271Z,8.80
2023-02-18T11:37:38.416Z,8.90
2023-02-18T11:40:07.688Z,8.90
2023-02-18T11:42:35.483Z,8.90
2023-02-18T11:45:05.498Z,8.90
2023-02-18T11:47:36.316Z,8.90
2023-02-18T11:50:21.819Z,8.90
2023-02-18T11:52:52.291Z,8.90
2023-02-18T11:55:22.556Z,8.90
2023-02-18T11:57:56.131Z,8.90
2023-02-18T12:00:31.659Z,8.90
2023-02-18T12:03:00.905Z,8.90
2023-02-18T12:05:29.920Z,8.90
2023-02-18T12:08:03.518Z,8.90
2023-02-18T12:10:35.621Z,8.90
2023-02-18T12:13:07.090Z,8.90
2023-02-18T12:15:51.075Z,8.90
2023-02-18T12:18:42.856Z,8.90
2023-02-18T12:21:35.730Z,8.90
2023-02-18T12:24:16.798Z,8.90
2023-02-18T12:26:54.545Z,8.90
2023-02-18T12:29:39.822Z,8.90
2023-02-18T12:32:18.556Z,8.90
2023-02-18T12:35:03.973Z,8.90
2023-02-18T12:38:00.122Z,8.90
2023-02-18T12:40:54.537Z,8.90
2023-02-18T12:43:34.301Z,8.90
2023-02-18T12:46:24.480Z,8.90
2023-02-18T12:49:08.808Z,8.90
2023-02-18T12:51:46.711Z,8.90
2023-02-18T12:54:32.315Z,8.90
2023-02-18T12:57:30.165Z,8.90
2023-02-18T13:00:20.029Z,8.90
2023-02-18T13:03:09.090Z,8.90
2023-02-18T13:05:44.099Z,8.90
2023-02-18T13:08:24.003Z,8.90
2023-02-18T13:11:05.447Z,8.90
2023-02-18T13:13:38.076Z,8.90
2023-02-18T13:16:11.280Z,8.90
2023-02-18T13:18:41.499Z,8.90
2023-02-18T13:21:12.456Z,8.90
2023-02-18T13:23:44.243Z,8.90
2023-02-18T13:26:15.287Z,8.90
2023-02-18T13:28:51.148Z,8.90
2023-02-18T13:31:28.806Z,8.90
2023-02-18T13:34:01.728Z,8.90
2023-02-18T13:36:40.227Z,8.90
2023-02-18T13:39:09.891Z,8.90
2023-02-18T13:41:39.470Z,8.90
2023-02-18T13:44:57.105Z,8.90
2023-02-18T13:47:39.222Z,8.90
2023-02-18T13:50:43.514Z,8.90
2023-02-18T13:53:21.203Z,8.90
2023-02-18T13:56:03.926Z,8.90
2023-02-18T13:58:37.170Z,8.90
2023-02-18T14:01:14.540Z,8.90
2023-02-18T14:04:01.129Z,8.90
2023-02-18T14:06:32.605Z,8.90
2023-02-18T14:09:26.152Z,8.90
2023-02-18T14:11:57.650Z,8.90
2023-02-18T14:14:40.261Z,8.90
2023-02-18T14:17:33.610Z,8.90
2023-02-18T14:20:30.461Z,8.90
2023-02-18T14:22:58.339Z,8.90
2023-02-18T14:25:38.008Z,8.90
2023-02-18T14:28:40.762Z,8.90
2023-02-18T14:31:34.338Z,8.90
2023-02-18T14:34:39.423Z,8.90
2023-02-18T14:37:31.745Z,8.90
2023-02-18T14:40:12.970Z,8.90
2023-02-18T14:42:47.920Z,8.90
2023-02-18T14:45:24.552Z,8.90
2023-02-18T14:48:14.236Z,9.00
2023-02-18T14:50:45.536Z,9.00
2023-02-18T14:53:18.426Z,9.00
2023-02-18T14:55:50.133Z,9.00
2023-02-18T14:58:28.979Z,9.00
2023-02-18T15:00:58.135Z,9.00
2023-02-18T15:03:28.384Z,9.00
2023-02-18T15:05:56.190Z,9.00
2023-02-18T15:08:25.706Z,9.00
2023-02-18T15:10:57.394Z,9.00
2023-02-18T15:13:28.701Z,9.00
2023-02-18T15:16:02.420Z,9.00
2023-02-18T15:18:34.660Z,9.00
2023-02-18T15:21:03.189Z,9.00
2023-02-18T15:23:31.895Z,9.00
2023-02-18T15:25:59.810Z,9.00
2023-02-18T15:28:30.386Z,9.00
2023-02-18T15:31:01.438Z,9.00
2023-02-18T15:33:29.957Z,9.00
2023-02-18T15:36:02.831Z,9.00
2023-02-18T15:38:30.763Z,9.00
2023-02-18T15:40:59.279Z,9.00
2023-02-18T15:43:27.510Z,9.00
2023-02-18T15:45:57.359Z,9.00
2023-02-18T15:48:33.423Z,9.00
2023-02-18T15:51:16.164Z,9.00
2023-02-18T15:53:47.381Z,9.00
2023-02-18T15:56:22.299Z,9.00
2023-02-18T15:58:50.058Z,9.00
2023-02-18T16:01:28.033Z,9.00
2023-02-18T16:03:57.721Z,9.00
2023-02-18T16:06:27.986Z,9.00
2023-02-18T16:09:02.227Z,9.00
2023-02-18T16:11:33.584Z,9.00
2023-02-18T16:14:01.596Z,9.00
2023-02-18T16:16:32.207Z,9.00
2023-02-18T16:19:01.686Z,9.00
2023-02-18T16:21:34.368Z,9.00
2023-02-18T16:24:04.230Z,9.00
2023-02-18T16:26:40.872Z,9.00
2023-02-18T16:29:14.724Z,9.10
2023-02-18T16:31:42.641Z,9.00
2023-02-18T16:34:11.825Z,9.00
2023-02-18T16:37:00.122Z,9.00
2023-02-18T16:39:28.602Z,9.00
2023-02-18T16:41:56.380Z,9.00
2023-02-18T16:44:24.210Z,9.10
2023-02-18T16:46:51.986Z,9.10
2023-02-18T16:49:21.718Z,9.10
2023-02-18T16:51:50.139Z,9.10
2023-02-18T16:54:18.203Z,9.10
2023-02-18T16:56:46.110Z,9.10
2023-02-18T16:59:13.838Z,9.10
2023-02-18T17:01:45.015Z,9.10
2023-02-18T17:04:14.832Z,9.10
2023-02-18T17:06:45.083Z,9.10
2023-02-18T17:09:16.839Z,9.10
2023-02-18T17:11:45.588Z,9.10
2023-02-18T17:14:17.810Z,9.10
2023-02-18T17:16:46.199Z,9.10
2023-02-18T17:19:14.526Z,9.10
2023-02-18T17:21:43.808Z,9.10
2023-02-18T17:24:13.130Z,9.10
2023-02-18T17:26:41.530Z,9.10
2023-02-18T17:29:09.366Z,9.10
2023-02-18T17:31:41.332Z,9.10
2023-02-18T17:34:13.042Z,9.10
2023-02-18T17:36:45.249Z,9.10
2023-02-18T17:39:17.184Z,9.10
2023-02-18T17:41:45.075Z,9.10
2023-02-18T17:44:15.951Z,9.10
2023-02-18T17:46:43.675Z,9.10
2023-02-18T17:49:11.449Z,9.10
2023-02-18T17:51:39.586Z,9.10
2023-02-18T17:54:14.773Z,9.10
2023-02-18T17:56:42.940Z,9.10
2023-02-18T17:59:10.964Z,9.10
2023-02-18T18:01:38.792Z,9.10
2023-02-18T18:04:12.259Z,9.10
2023-02-18T18:06:40.009Z,9.10
2023-02-18T18:09:07.786Z,9.10
2023-02-18T18:11:37.128Z,9.10
2023-02-18T18:14:05.093Z,9.10
2023-02-18T18:16:32.806Z,9.10
2023-02-18T18:19:00.543Z,9.10
2023-02-18T18:21:31.833Z,9.10
2023-02-18T18:24:00.063Z,9.10
2023-02-18T18:26:28.962Z,9.10
2023-02-18T18:28:58.031Z,9.10
2023-02-18T18:31:26.080Z,9.10
2023-02-18T18:33:53.955Z,9.10
2023-02-18T18:36:23.860Z,9.10
2023-02-18T18:38:51.687Z,9.10
2023-02-18T18:41:22.033Z,9.10
2023-02-18T18:43:50.280Z,9.10
2023-02-18T18:46:20.133Z,9.10
2023-02-18T18:48:47.903Z,9.10
2023-02-18T18:51:17.297Z,9.10
2023-02-18T18:53:45.106Z,9.10
2023-02-18T18:56:13.830Z,9.10
2023-02-18T18:58:41.579Z,9.10
2023-02-18T19:01:15.950Z,9.10
2023-02-18T19:03:45.583Z,9.10
2023-02-18T19:06:14.488Z,9.10
2023-02-18T19:08:42.317Z,9.10
2023-02-18T19:11:12.564Z,9.10
2023-02-18T19:13:40.798Z,9.10
2023-02-18T19:16:13.800Z,9.10
2023-02-18T19:18:41.533Z,9.10
2023-02-18T19:21:12.286Z,9.10
2023-02-18T19:23:40.247Z,9.10
2023-02-18T19:26:08.416Z,9.10
2023-02-18T19:28:36.352Z,9.10
2023-02-18T19:31:09.714Z,9.00
2023-02-18T19:33:39.012Z,9.00
2023-02-18T19:36:08.706Z,9.00
2023-02-18T19:38:37.835Z,9.00
2023-02-18T19:41:09.840Z,9.00
2023-02-18T19:43:37.816Z,9.00
2023-02-18T19:46:09.913Z,9.00
2023-02-18T19:48:38.110Z,9.00
2023-02-18T19:51:06.458Z,9.00
2023-02-18T19:53:34.227Z,9.10
2023-02-18T19:56:06.194Z,9.00
2023-02-18T19:58:34.550Z,9.00
2023-02-18T20:01:02.273Z,9.00
2023-02-18T20:03:30.246Z,9.00
2023-02-18T20:05:57.971Z,9.10
2023-02-18T20:08:25.697Z,9.00
2023-02-18T20:10:57.823Z,9.00
2023-02-18T20:13:27.227Z,9.00
2023-02-18T20:15:54.984Z,9.00
2023-02-18T20:18:22.832Z,9.10
2023-02-18T20:20:51.362Z,9.00
2023-02-18T20:23:19.364Z,9.10
2023-02-18T20:25:47.495Z,9.10
2023-02-18T20:28:15.471Z,9.10
2023-02-18T20:30:45.063Z,9.10
2023-02-18T20:33:12.826Z,9.10
2023-02-18T20:35:40.563Z,9.10
2023-02-18T20:38:08.324Z,9.10
2023-02-18T20:40:36.021Z,9.10
2023-02-18T20:43:03.773Z,9.10
2023-02-18T20:45:31.463Z,9.10
2023-02-18T20:48:00.524Z,9.10
2023-02-18T20:50:28.283Z,9.10
2023-02-18T20:52:56.088Z,9.10
2023-02-18T20:55:24.014Z,9.10
2023-02-18T20:57:51.712Z,9.10
2023-02-18T21:00:19.476Z,9.10
2023-02-18T21:02:47.232Z,9.10
2023-02-18T21:05:16.360Z,9.10
2023-02-18T21:07:44.055Z,9.10
2023-02-18T21:10:11.767Z,9.10
2023-02-18T21:12:39.547Z,9.10
2023-02-18T21:15:07.779Z,9.10
2023-02-18T21:17:35.522Z,9.10
2023-02-18T21:20:03.228Z,9.10
2023-02-18T21:22:32.367Z,9.10
2023-02-18T21:25:00.311Z,9.10
2023-02-18T21:27:29.060Z,9.10
2023-02-18T21:29:59.565Z,9.10
2023-02-18T21:32:27.552Z,9.10
2023-02-18T21:34:55.340Z,9.10
2023-02-18T21:37:23.029Z,9.10
2023-02-18T21:39:52.064Z,9.10
2023-02-18T21:42:19.774Z,9.10
2023-02-18T21:44:49.373Z,9.10
2023-02-18T21:47:17.075Z,9.10
2023-02-18T21:49:44.815Z,9.10
2023-02-18T21:52:12.513Z,9.10
2023-02-18T21:54:41.861Z,9.10
2023-02-18T21:57:13.407Z,9.10
2023-02-18T21:59:42.197Z,9.10
2023-02-18T22:06:00.224Z,9.10
2023-02-18T22:08:28.082Z,9.10
2023-02-18T22:10:55.810Z,9.10
2023-02-18T22:13:24.888Z,9.10
2023-02-18T22:15:56.267Z,9.10
2023-02-18T22:18:24.052Z,9.10
2023-02-18T22:20:51.845Z,9.10
2023-02-18T22:23:19.744Z,9.10
2023-02-18T22:25:49.058Z,9.10
2023-02-18T22:28:16.805Z,9.10
2023-02-18T22:30:45.900Z,9.10
2023-02-18T22:33:13.633Z,9.10
2023-02-18T22:35:41.384Z,9.10
2023-02-18T22:38:09.229Z,9.10
2023-02-18T22:40:36.970Z,9.10
2023-02-18T22:43:04.703Z,9.10
2023-02-18T22:45:32.483Z,9.10
2023-02-18T22:48:01.565Z,9.10
2023-02-18T22:50:29.315Z,9.10
2023-02-18T22:52:57.290Z,9.10
2023-02-18T22:55:25.012Z,9.10
2023-02-18T22:57:52.730Z,9.10
2023-02-18T23:00:25.107Z,9.10
2023-02-18T23:02:53.273Z,9.10
2023-02-18T23:05:22.370Z,9.10
2023-02-18T23:07:50.483Z,9.10
2023-02-18T23:10:18.802Z,9.10
2023-02-18T23:12:46.534Z,9.10
2023-02-18T23:15:14.374Z,9.10
2023-02-18T23:17:42.122Z,9.10
2023-02-18T23:20:10.741Z,9.10
2023-02-18T23:22:41.812Z,9.10
2023-02-18T23:25:09.588Z,9.10
2023-02-18T23:27:37.318Z,9.10
2023-02-18T23:30:05.501Z,9.10
2023-02-18T23:32:33.284Z,9.10
2023-02-18T23:35:01.002Z,9.10
2023-02-18T23:37:44.007Z,9.10
2023-02-18T23:40:14.675Z,9.10
2023-02-18T23:42:42.529Z,9.10
2023-02-18T23:45:10.589Z,9.10
2023-02-18T23:47:38.390Z,9.10
2023-02-18T23:50:06.682Z,9.10
2023-02-18T23:52:34.423Z,9.10
2023-02-18T23:55:02.466Z,9.10
2023-02-18T23:57:33.184Z,9.10
